sensor_id;sensor_type;location;lat;lon;timestamp;temperature;humidity
67557;DHT22;54387;53.526;49.300;2022-08-30T00:01:09;25.20;31.50
67557;DHT22;54387;53.526;49.300;2022-08-30T00:03:38;25.20;31.80
67557;DHT22;54387;53.526;49.300;2022-08-30T00:06:06;25.20;31.80
67557;DHT22;54387;53.526;49.300;2022-08-30T00:08:34;25.10;31.70
67557;DHT22;54387;53.526;49.300;2022-08-30T00:11:01;25.10;31.70
67557;DHT22;54387;53.526;49.300;2022-08-30T00:13:30;25.10;32.00
67557;DHT22;54387;53.526;49.300;2022-08-30T00:15:56;25.10;32.30
67557;DHT22;54387;53.526;49.300;2022-08-30T00:18:23;25.10;32.40
67557;DHT22;54387;53.526;49.300;2022-08-30T00:20:50;25.10;32.50
67557;DHT22;54387;53.526;49.300;2022-08-30T00:23:17;25.10;32.30
67557;DHT22;54387;53.526;49.300;2022-08-30T00:25:44;25.20;32.30
67557;DHT22;54387;53.526;49.300;2022-08-30T00:28:11;25.20;32.00
67557;DHT22;54387;53.526;49.300;2022-08-30T00:30:39;25.20;31.80
67557;DHT22;54387;53.526;49.300;2022-08-30T00:33:05;25.30;31.80
67557;DHT22;54387;53.526;49.300;2022-08-30T00:35:32;25.30;31.70
67557;DHT22;54387;53.526;49.300;2022-08-30T00:37:58;25.30;31.50
67557;DHT22;54387;53.526;49.300;2022-08-30T00:40:25;25.30;31.30
67557;DHT22;54387;53.526;49.300;2022-08-30T00:42:51;25.40;31.20
67557;DHT22;54387;53.526;49.300;2022-08-30T00:45:22;25.40;31.00
67557;DHT22;54387;53.526;49.300;2022-08-30T00:47:49;25.50;31.00
67557;DHT22;54387;53.526;49.300;2022-08-30T00:50:19;25.50;30.50
67557;DHT22;54387;53.526;49.300;2022-08-30T00:52:48;25.60;30.50
67557;DHT22;54387;53.526;49.300;2022-08-30T00:55:16;25.60;30.20
67557;DHT22;54387;53.526;49.300;2022-08-30T00:57:45;25.60;30.00
67557;DHT22;54387;53.526;49.300;2022-08-30T01:00:13;25.70;30.00
67557;DHT22;54387;53.526;49.300;2022-08-30T01:02:40;25.70;30.00
67557;DHT22;54387;53.526;49.300;2022-08-30T01:05:08;25.70;29.90
67557;DHT22;54387;53.526;49.300;2022-08-30T01:07:38;25.70;29.80
67557;DHT22;54387;53.526;49.300;2022-08-30T01:10:07;25.70;29.80
67557;DHT22;54387;53.526;49.300;2022-08-30T01:12:36;25.70;29.90
67557;DHT22;54387;53.526;49.300;2022-08-30T01:15:04;25.70;30.00
67557;DHT22;54387;53.526;49.300;2022-08-30T01:17:30;25.70;30.10
67557;DHT22;54387;53.526;49.300;2022-08-30T01:20:04;25.70;30.20
67557;DHT22;54387;53.526;49.300;2022-08-30T01:25:24;25.70;30.40
67557;DHT22;54387;53.526;49.300;2022-08-30T01:28:04;25.60;30.30
67557;DHT22;54387;53.526;49.300;2022-08-30T01:30:31;25.60;30.10
67557;DHT22;54387;53.526;49.300;2022-08-30T01:33:01;25.60;30.20
67557;DHT22;54387;53.526;49.300;2022-08-30T01:35:29;25.60;30.20
67557;DHT22;54387;53.526;49.300;2022-08-30T01:37:58;25.60;30.10
67557;DHT22;54387;53.526;49.300;2022-08-30T01:40:24;25.60;30.00
67557;DHT22;54387;53.526;49.300;2022-08-30T01:42:50;25.50;30.00
67557;DHT22;54387;53.526;49.300;2022-08-30T01:45:17;25.50;30.20
67557;DHT22;54387;53.526;49.300;2022-08-30T01:47:43;25.40;30.30
67557;DHT22;54387;53.526;49.300;2022-08-30T01:50:09;25.40;30.30
67557;DHT22;54387;53.526;49.300;2022-08-30T01:52:36;25.40;30.20
67557;DHT22;54387;53.526;49.300;2022-08-30T01:55:03;25.30;30.10
67557;DHT22;54387;53.526;49.300;2022-08-30T01:57:30;25.30;30.20
67557;DHT22;54387;53.526;49.300;2022-08-30T01:59:56;25.20;30.00
67557;DHT22;54387;53.526;49.300;2022-08-30T02:02:24;25.20;30.00
67557;DHT22;54387;53.526;49.300;2022-08-30T02:04:53;25.10;30.00
67557;DHT22;54387;53.526;49.300;2022-08-30T02:07:21;25.10;29.80
67557;DHT22;54387;53.526;49.300;2022-08-30T02:09:49;25.00;29.70
67557;DHT22;54387;53.526;49.300;2022-08-30T02:12:17;25.00;29.60
67557;DHT22;54387;53.526;49.300;2022-08-30T02:14:43;24.90;29.40
67557;DHT22;54387;53.526;49.300;2022-08-30T02:17:11;24.90;29.30
67557;DHT22;54387;53.526;49.300;2022-08-30T02:19:38;24.90;29.30
67557;DHT22;54387;53.526;49.300;2022-08-30T02:22:05;24.90;29.20
67557;DHT22;54387;53.526;49.300;2022-08-30T02:24:32;25.00;29.30
67557;DHT22;54387;53.526;49.300;2022-08-30T02:26:58;25.00;29.30
67557;DHT22;54387;53.526;49.300;2022-08-30T02:29:24;24.90;29.40
67557;DHT22;54387;53.526;49.300;2022-08-30T02:31:51;25.00;29.40
67557;DHT22;54387;53.526;49.300;2022-08-30T02:34:17;25.00;29.40
67557;DHT22;54387;53.526;49.300;2022-08-30T02:36:44;25.00;29.40
67557;DHT22;54387;53.526;49.300;2022-08-30T02:39:12;25.00;29.40
67557;DHT22;54387;53.526;49.300;2022-08-30T02:41:39;25.00;29.40
67557;DHT22;54387;53.526;49.300;2022-08-30T02:44:07;25.00;29.30
67557;DHT22;54387;53.526;49.300;2022-08-30T02:46:34;25.10;29.40
67557;DHT22;54387;53.526;49.300;2022-08-30T02:49:01;25.10;29.40
67557;DHT22;54387;53.526;49.300;2022-08-30T02:51:27;25.10;29.40
67557;DHT22;54387;53.526;49.300;2022-08-30T02:53:53;25.10;29.30
67557;DHT22;54387;53.526;49.300;2022-08-30T02:56:19;25.10;29.30
67557;DHT22;54387;53.526;49.300;2022-08-30T02:58:45;25.10;29.40
67557;DHT22;54387;53.526;49.300;2022-08-30T03:01:14;25.00;29.50
67557;DHT22;54387;53.526;49.300;2022-08-30T03:03:43;25.00;29.60
67557;DHT22;54387;53.526;49.300;2022-08-30T03:06:10;24.90;29.60
67557;DHT22;54387;53.526;49.300;2022-08-30T03:08:37;24.90;29.60
67557;DHT22;54387;53.526;49.300;2022-08-30T03:11:03;24.90;29.40
67557;DHT22;54387;53.526;49.300;2022-08-30T03:13:30;24.90;29.30
67557;DHT22;54387;53.526;49.300;2022-08-30T03:15:56;25.00;29.20
67557;DHT22;54387;53.526;49.300;2022-08-30T03:18:24;25.10;29.30
67557;DHT22;54387;53.526;49.300;2022-08-30T03:20:52;25.10;29.20
67557;DHT22;54387;53.526;49.300;2022-08-30T03:23:18;25.20;29.20
67557;DHT22;54387;53.526;49.300;2022-08-30T03:25:44;25.30;29.30
67557;DHT22;54387;53.526;49.300;2022-08-30T03:28:11;25.40;29.40
67557;DHT22;54387;53.526;49.300;2022-08-30T03:30:37;25.40;29.40
67557;DHT22;54387;53.526;49.300;2022-08-30T03:33:03;25.40;29.50
67557;DHT22;54387;53.526;49.300;2022-08-30T03:35:29;25.40;29.60
67557;DHT22;54387;53.526;49.300;2022-08-30T03:37:56;25.40;29.70
67557;DHT22;54387;53.526;49.300;2022-08-30T03:40:24;25.40;29.80
67557;DHT22;54387;53.526;49.300;2022-08-30T03:42:50;25.50;29.80
67557;DHT22;54387;53.526;49.300;2022-08-30T03:45:18;25.50;29.70
67557;DHT22;54387;53.526;49.300;2022-08-30T03:47:44;25.60;29.50
67557;DHT22;54387;53.526;49.300;2022-08-30T03:50:12;25.70;29.50
67557;DHT22;54387;53.526;49.300;2022-08-30T03:52:38;25.80;29.60
67557;DHT22;54387;53.526;49.300;2022-08-30T03:55:05;25.90;29.60
67557;DHT22;54387;53.526;49.300;2022-08-30T03:57:31;26.00;29.70
67557;DHT22;54387;53.526;49.300;2022-08-30T03:59:58;26.10;29.70
67557;DHT22;54387;53.526;49.300;2022-08-30T04:02:25;26.20;29.90
67557;DHT22;54387;53.526;49.300;2022-08-30T04:04:52;26.20;30.00
67557;DHT22;54387;53.526;49.300;2022-08-30T04:07:18;26.40;30.00
67557;DHT22;54387;53.526;49.300;2022-08-30T04:09:45;26.40;30.00
67557;DHT22;54387;53.526;49.300;2022-08-30T04:12:12;26.50;30.00
67557;DHT22;54387;53.526;49.300;2022-08-30T04:14:38;26.60;30.00
67557;DHT22;54387;53.526;49.300;2022-08-30T04:17:05;26.70;30.00
67557;DHT22;54387;53.526;49.300;2022-08-30T04:19:31;26.70;29.90
67557;DHT22;54387;53.526;49.300;2022-08-30T04:21:57;26.80;30.00
67557;DHT22;54387;53.526;49.300;2022-08-30T04:24:23;26.80;30.00
67557;DHT22;54387;53.526;49.300;2022-08-30T04:26:50;26.90;29.90
67557;DHT22;54387;53.526;49.300;2022-08-30T04:29:17;26.90;29.60
67557;DHT22;54387;53.526;49.300;2022-08-30T04:31:44;27.00;29.60
67557;DHT22;54387;53.526;49.300;2022-08-30T04:34:11;27.20;29.50
67557;DHT22;54387;53.526;49.300;2022-08-30T04:36:38;27.20;29.00
67557;DHT22;54387;53.526;49.300;2022-08-30T04:39:05;27.30;29.00
67557;DHT22;54387;53.526;49.300;2022-08-30T04:41:31;27.30;28.90
67557;DHT22;54387;53.526;49.300;2022-08-30T04:43:57;27.30;28.90
67557;DHT22;54387;53.526;49.300;2022-08-30T04:46:25;27.30;28.60
67557;DHT22;54387;53.526;49.300;2022-08-30T04:48:52;27.30;28.20
67557;DHT22;54387;53.526;49.300;2022-08-30T04:51:18;27.40;28.10
67557;DHT22;54387;53.526;49.300;2022-08-30T04:53:45;27.40;28.20
67557;DHT22;54387;53.526;49.300;2022-08-30T04:56:17;27.50;28.20
67557;DHT22;54387;53.526;49.300;2022-08-30T04:58:44;27.50;28.30
67557;DHT22;54387;53.526;49.300;2022-08-30T05:01:20;27.60;28.30
67557;DHT22;54387;53.526;49.300;2022-08-30T05:03:47;27.60;28.30
67557;DHT22;54387;53.526;49.300;2022-08-30T05:06:15;27.60;28.10
67557;DHT22;54387;53.526;49.300;2022-08-30T05:08:42;27.70;27.90
67557;DHT22;54387;53.526;49.300;2022-08-30T05:11:08;27.60;27.60
67557;DHT22;54387;53.526;49.300;2022-08-30T05:13:35;27.70;27.60
67557;DHT22;54387;53.526;49.300;2022-08-30T05:16:03;27.70;27.70
67557;DHT22;54387;53.526;49.300;2022-08-30T05:18:30;27.80;27.90
67557;DHT22;54387;53.526;49.300;2022-08-30T05:21:12;27.80;28.10
67557;DHT22;54387;53.526;49.300;2022-08-30T05:23:39;27.80;28.10
67557;DHT22;54387;53.526;49.300;2022-08-30T05:26:08;27.90;28.30
67557;DHT22;54387;53.526;49.300;2022-08-30T05:28:35;28.00;28.10
67557;DHT22;54387;53.526;49.300;2022-08-30T05:31:02;28.10;27.90
67557;DHT22;54387;53.526;49.300;2022-08-30T05:33:36;28.20;27.20
67557;DHT22;54387;53.526;49.300;2022-08-30T05:36:05;28.30;27.10
67557;DHT22;54387;53.526;49.300;2022-08-30T05:38:32;28.50;25.70
67557;DHT22;54387;53.526;49.300;2022-08-30T05:40:58;28.60;25.10
67557;DHT22;54387;53.526;49.300;2022-08-30T05:43:24;28.80;24.80
67557;DHT22;54387;53.526;49.300;2022-08-30T05:46:00;28.90;24.70
67557;DHT22;54387;53.526;49.300;2022-08-30T05:48:27;28.90;24.40
67557;DHT22;54387;53.526;49.300;2022-08-30T05:51:08;28.70;24.20
67557;DHT22;54387;53.526;49.300;2022-08-30T05:53:37;28.60;24.30
67557;DHT22;54387;53.526;49.300;2022-08-30T05:56:05;28.50;24.70
67557;DHT22;54387;53.526;49.300;2022-08-30T05:58:33;28.50;25.00
67557;DHT22;54387;53.526;49.300;2022-08-30T06:00:59;28.40;25.30
67557;DHT22;54387;53.526;49.300;2022-08-30T06:03:25;28.40;25.60
67557;DHT22;54387;53.526;49.300;2022-08-30T06:05:52;28.30;25.60
67557;DHT22;54387;53.526;49.300;2022-08-30T06:08:18;28.30;26.00
67557;DHT22;54387;53.526;49.300;2022-08-30T06:10:45;28.20;26.20
67557;DHT22;54387;53.526;49.300;2022-08-30T06:13:12;28.20;26.30
67557;DHT22;54387;53.526;49.300;2022-08-30T06:15:39;28.30;26.20
67557;DHT22;54387;53.526;49.300;2022-08-30T06:18:08;28.30;26.30
67557;DHT22;54387;53.526;49.300;2022-08-30T06:20:42;28.30;26.30
67557;DHT22;54387;53.526;49.300;2022-08-30T06:23:09;28.30;26.60
67557;DHT22;54387;53.526;49.300;2022-08-30T06:25:37;28.40;26.70
67557;DHT22;54387;53.526;49.300;2022-08-30T06:28:06;28.50;26.70
67557;DHT22;54387;53.526;49.300;2022-08-30T06:30:33;28.50;26.80
67557;DHT22;54387;53.526;49.300;2022-08-30T06:32:59;28.50;26.60
67557;DHT22;54387;53.526;49.300;2022-08-30T06:35:26;28.40;27.00
67557;DHT22;54387;53.526;49.300;2022-08-30T06:37:53;28.40;27.20
67557;DHT22;54387;53.526;49.300;2022-08-30T06:40:19;28.30;27.20
67557;DHT22;54387;53.526;49.300;2022-08-30T06:42:47;28.30;27.40
67557;DHT22;54387;53.526;49.300;2022-08-30T06:45:13;28.30;27.50
67557;DHT22;54387;53.526;49.300;2022-08-30T06:47:41;28.30;27.60
67557;DHT22;54387;53.526;49.300;2022-08-30T06:50:09;28.40;28.00
67557;DHT22;54387;53.526;49.300;2022-08-30T06:52:36;28.50;28.10
67557;DHT22;54387;53.526;49.300;2022-08-30T06:55:02;28.60;28.20
67557;DHT22;54387;53.526;49.300;2022-08-30T06:57:29;28.70;28.10
67557;DHT22;54387;53.526;49.300;2022-08-30T06:59:56;28.90;28.20
67557;DHT22;54387;53.526;49.300;2022-08-30T07:02:23;29.00;28.00
67557;DHT22;54387;53.526;49.300;2022-08-30T07:04:50;29.20;27.90
67557;DHT22;54387;53.526;49.300;2022-08-30T07:07:16;29.40;28.00
67557;DHT22;54387;53.526;49.300;2022-08-30T07:09:42;29.60;27.70
67557;DHT22;54387;53.526;49.300;2022-08-30T07:12:10;29.70;27.60
67557;DHT22;54387;53.526;49.300;2022-08-30T07:14:37;29.80;27.90
67557;DHT22;54387;53.526;49.300;2022-08-30T07:17:05;29.90;27.70
67557;DHT22;54387;53.526;49.300;2022-08-30T07:19:52;30.00;27.70
67557;DHT22;54387;53.526;49.300;2022-08-30T07:22:18;30.10;27.80
67557;DHT22;54387;53.526;49.300;2022-08-30T07:24:44;30.20;27.70
67557;DHT22;54387;53.526;49.300;2022-08-30T07:27:11;30.30;27.70
67557;DHT22;54387;53.526;49.300;2022-08-30T07:29:37;30.50;27.60
67557;DHT22;54387;53.526;49.300;2022-08-30T07:32:04;30.60;27.20
67557;DHT22;54387;53.526;49.300;2022-08-30T07:34:30;30.80;26.50
67557;DHT22;54387;53.526;49.300;2022-08-30T07:36:56;30.90;26.40
67557;DHT22;54387;53.526;49.300;2022-08-30T07:39:22;31.10;26.40
67557;DHT22;54387;53.526;49.300;2022-08-30T07:41:49;31.30;26.00
67557;DHT22;54387;53.526;49.300;2022-08-30T07:44:16;31.50;25.90
67557;DHT22;54387;53.526;49.300;2022-08-30T07:46:42;31.60;25.80
67557;DHT22;54387;53.526;49.300;2022-08-30T07:49:09;31.70;25.90
67557;DHT22;54387;53.526;49.300;2022-08-30T07:51:37;31.70;26.10
67557;DHT22;54387;53.526;49.300;2022-08-30T07:54:03;31.60;26.70
67557;DHT22;54387;53.526;49.300;2022-08-30T07:56:30;31.40;27.00
67557;DHT22;54387;53.526;49.300;2022-08-30T07:58:56;31.30;27.30
67557;DHT22;54387;53.526;49.300;2022-08-30T08:01:22;31.20;26.70
67557;DHT22;54387;53.526;49.300;2022-08-30T08:03:49;31.20;26.70
67557;DHT22;54387;53.526;49.300;2022-08-30T08:06:19;31.20;26.10
67557;DHT22;54387;53.526;49.300;2022-08-30T08:08:45;31.20;25.90
67557;DHT22;54387;53.526;49.300;2022-08-30T08:13:44;31.50;25.40
67557;DHT22;54387;53.526;49.300;2022-08-30T08:16:10;31.60;24.70
67557;DHT22;54387;53.526;49.300;2022-08-30T08:18:36;31.70;24.30
67557;DHT22;54387;53.526;49.300;2022-08-30T08:21:03;31.80;24.30
67557;DHT22;54387;53.526;49.300;2022-08-30T08:23:29;31.80;24.30
67557;DHT22;54387;53.526;49.300;2022-08-30T08:25:55;32.00;24.60
67557;DHT22;54387;53.526;49.300;2022-08-30T08:28:23;32.00;24.70
67557;DHT22;54387;53.526;49.300;2022-08-30T08:30:49;32.10;24.90
67557;DHT22;54387;53.526;49.300;2022-08-30T08:33:17;32.20;25.20
67557;DHT22;54387;53.526;49.300;2022-08-30T08:35:43;32.30;25.40
67557;DHT22;54387;53.526;49.300;2022-08-30T08:38:10;32.40;25.40
67557;DHT22;54387;53.526;49.300;2022-08-30T08:43:46;32.40;25.20
67557;DHT22;54387;53.526;49.300;2022-08-30T08:49:20;32.40;25.20
67557;DHT22;54387;53.526;49.300;2022-08-30T08:51:47;32.30;24.90
67557;DHT22;54387;53.526;49.300;2022-08-30T08:54:46;32.30;24.60
67557;DHT22;54387;53.526;49.300;2022-08-30T08:57:14;32.20;24.70
67557;DHT22;54387;53.526;49.300;2022-08-30T08:59:44;32.10;24.70
67557;DHT22;54387;53.526;49.300;2022-08-30T09:02:27;32.00;24.30
67557;DHT22;54387;53.526;49.300;2022-08-30T09:04:57;32.00;24.60
67557;DHT22;54387;53.526;49.300;2022-08-30T09:07:28;31.90;24.70
67557;DHT22;54387;53.526;49.300;2022-08-30T09:09:56;31.90;24.70
67557;DHT22;54387;53.526;49.300;2022-08-30T09:12:25;32.00;24.70
67557;DHT22;54387;53.526;49.300;2022-08-30T09:14:54;32.20;24.50
67557;DHT22;54387;53.526;49.300;2022-08-30T09:17:21;32.40;24.20
67557;DHT22;54387;53.526;49.300;2022-08-30T09:22:25;33.40;23.80
67557;DHT22;54387;53.526;49.300;2022-08-30T09:25:19;33.90;23.60
67557;DHT22;54387;53.526;49.300;2022-08-30T09:27:49;34.40;23.10
67557;DHT22;54387;53.526;49.300;2022-08-30T09:32:58;34.40;23.00
67557;DHT22;54387;53.526;49.300;2022-08-30T09:35:34;34.30;23.20
67557;DHT22;54387;53.526;49.300;2022-08-30T09:38:09;34.20;23.10
67557;DHT22;54387;53.526;49.300;2022-08-30T09:40:41;34.40;23.10
67557;DHT22;54387;53.526;49.300;2022-08-30T09:43:29;34.70;23.00
67557;DHT22;54387;53.526;49.300;2022-08-30T09:51:07;35.90;22.50
67557;DHT22;54387;53.526;49.300;2022-08-30T09:54:20;37.70;21.80
67557;DHT22;54387;53.526;49.300;2022-08-30T09:56:53;40.20;20.10
67557;DHT22;54387;53.526;49.300;2022-08-30T10:05:24;45.80;17.30
67557;DHT22;54387;53.526;49.300;2022-08-30T10:11:00;48.00;16.30
67557;DHT22;54387;53.526;49.300;2022-08-30T10:13:52;48.60;16.10
67557;DHT22;54387;53.526;49.300;2022-08-30T10:16:33;49.30;16.00
67557;DHT22;54387;53.526;49.300;2022-08-30T10:22:21;49.50;15.40
67557;DHT22;54387;53.526;49.300;2022-08-30T10:27:40;49.60;15.10
67557;DHT22;54387;53.526;49.300;2022-08-30T10:30:13;49.60;15.30
67557;DHT22;54387;53.526;49.300;2022-08-30T10:32:52;49.70;15.10
67557;DHT22;54387;53.526;49.300;2022-08-30T10:35:26;49.60;15.30
67557;DHT22;54387;53.526;49.300;2022-08-30T10:37:59;49.50;15.60
67557;DHT22;54387;53.526;49.300;2022-08-30T10:40:32;49.20;15.70
67557;DHT22;54387;53.526;49.300;2022-08-30T10:43:33;49.10;16.00
67557;DHT22;54387;53.526;49.300;2022-08-30T10:46:08;48.80;15.80
67557;DHT22;54387;53.526;49.300;2022-08-30T10:48:40;48.10;15.60
67557;DHT22;54387;53.526;49.300;2022-08-30T10:51:32;48.10;15.50
67557;DHT22;54387;53.526;49.300;2022-08-30T10:54:01;48.00;15.20
67557;DHT22;54387;53.526;49.300;2022-08-30T10:56:29;48.10;15.40
67557;DHT22;54387;53.526;49.300;2022-08-30T10:58:56;48.50;15.10
67557;DHT22;54387;53.526;49.300;2022-08-30T11:02:07;48.50;14.90
67557;DHT22;54387;53.526;49.300;2022-08-30T11:10:00;45.30;15.20
67557;DHT22;54387;53.526;49.300;2022-08-30T11:13:11;43.60;15.60
67557;DHT22;54387;53.526;49.300;2022-08-30T11:16:05;43.10;15.90
67557;DHT22;54387;53.526;49.300;2022-08-30T11:18:42;42.80;16.00
67557;DHT22;54387;53.526;49.300;2022-08-30T11:21:39;41.70;16.20
67557;DHT22;54387;53.526;49.300;2022-08-30T11:31:58;37.30;18.30
67557;DHT22;54387;53.526;49.300;2022-08-30T11:40:03;36.10;18.50
67557;DHT22;54387;53.526;49.300;2022-08-30T11:42:33;35.70;18.70
67557;DHT22;54387;53.526;49.300;2022-08-30T11:46:04;35.50;18.70
67557;DHT22;54387;53.526;49.300;2022-08-30T11:48:07;35.40;18.70
67557;DHT22;54387;53.526;49.300;2022-08-30T11:51:05;35.20;18.70
67557;DHT22;54387;53.526;49.300;2022-08-30T11:53:53;35.10;18.50
67557;DHT22;54387;53.526;49.300;2022-08-30T12:02:06;34.40;18.20
67557;DHT22;54387;53.526;49.300;2022-08-30T12:04:45;34.10;19.00
67557;DHT22;54387;53.526;49.300;2022-08-30T12:10:24;33.60;18.50
67557;DHT22;54387;53.526;49.300;2022-08-30T12:13:01;33.40;18.90
67557;DHT22;54387;53.526;49.300;2022-08-30T12:18:20;33.80;19.20
67557;DHT22;54387;53.526;49.300;2022-08-30T12:20:56;34.00;19.00
67557;DHT22;54387;53.526;49.300;2022-08-30T12:26:16;34.10;18.80
67557;DHT22;54387;53.526;49.300;2022-08-30T12:28:43;34.10;18.90
67557;DHT22;54387;53.526;49.300;2022-08-30T12:31:21;34.10;19.10
67557;DHT22;54387;53.526;49.300;2022-08-30T12:33:57;34.00;19.20
67557;DHT22;54387;53.526;49.300;2022-08-30T12:36:46;34.00;19.40
67557;DHT22;54387;53.526;49.300;2022-08-30T12:39:18;33.90;19.60
67557;DHT22;54387;53.526;49.300;2022-08-30T12:41:45;34.00;19.50
67557;DHT22;54387;53.526;49.300;2022-08-30T12:44:23;34.10;19.40
67557;DHT22;54387;53.526;49.300;2022-08-30T12:46:56;34.20;19.60
67557;DHT22;54387;53.526;49.300;2022-08-30T12:49:26;34.20;19.80
67557;DHT22;54387;53.526;49.300;2022-08-30T12:51:53;34.40;19.60
67557;DHT22;54387;53.526;49.300;2022-08-30T12:54:23;34.50;19.70
67557;DHT22;54387;53.526;49.300;2022-08-30T12:56:59;34.60;20.30
67557;DHT22;54387;53.526;49.300;2022-08-30T13:02:17;34.90;19.10
67557;DHT22;54387;53.526;49.300;2022-08-30T13:04:45;35.60;19.10
67557;DHT22;54387;53.526;49.300;2022-08-30T13:07:33;36.60;19.60
67557;DHT22;54387;53.526;49.300;2022-08-30T13:10:15;37.30;18.50
67557;DHT22;54387;53.526;49.300;2022-08-30T13:13:05;37.70;18.30
67557;DHT22;54387;53.526;49.300;2022-08-30T13:15:34;37.60;18.40
67557;DHT22;54387;53.526;49.300;2022-08-30T13:20:46;36.20;19.00
67557;DHT22;54387;53.526;49.300;2022-08-30T13:23:22;35.50;19.70
67557;DHT22;54387;53.526;49.300;2022-08-30T13:25:48;35.10;20.30
67557;DHT22;54387;53.526;49.300;2022-08-30T13:28:15;34.80;20.40
67557;DHT22;54387;53.526;49.300;2022-08-30T13:30:41;34.70;20.90
67557;DHT22;54387;53.526;49.300;2022-08-30T13:33:07;34.50;21.60
67557;DHT22;54387;53.526;49.300;2022-08-30T13:35:36;34.30;22.00
67557;DHT22;54387;53.526;49.300;2022-08-30T13:38:02;34.20;22.60
67557;DHT22;54387;53.526;49.300;2022-08-30T13:40:29;34.30;22.70
67557;DHT22;54387;53.526;49.300;2022-08-30T13:42:55;34.40;22.60
67557;DHT22;54387;53.526;49.300;2022-08-30T13:45:21;34.80;22.50
67557;DHT22;54387;53.526;49.300;2022-08-30T13:47:48;35.10;22.20
67557;DHT22;54387;53.526;49.300;2022-08-30T13:50:14;35.40;22.10
67557;DHT22;54387;53.526;49.300;2022-08-30T13:52:40;35.50;22.10
67557;DHT22;54387;53.526;49.300;2022-08-30T13:55:07;35.40;22.20
67557;DHT22;54387;53.526;49.300;2022-08-30T13:57:33;35.00;22.50
67557;DHT22;54387;53.526;49.300;2022-08-30T13:59:59;34.60;22.90
67557;DHT22;54387;53.526;49.300;2022-08-30T14:02:26;34.20;23.30
67557;DHT22;54387;53.526;49.300;2022-08-30T14:04:52;33.90;23.70
67557;DHT22;54387;53.526;49.300;2022-08-30T14:07:18;33.50;23.80
67557;DHT22;54387;53.526;49.300;2022-08-30T14:09:44;33.30;24.00
67557;DHT22;54387;53.526;49.300;2022-08-30T14:12:10;33.10;24.20
67557;DHT22;54387;53.526;49.300;2022-08-30T14:14:37;32.90;24.30
67557;DHT22;54387;53.526;49.300;2022-08-30T14:17:03;32.80;24.50
67557;DHT22;54387;53.526;49.300;2022-08-30T14:19:29;32.70;24.70
67557;DHT22;54387;53.526;49.300;2022-08-30T14:21:55;32.60;24.90
67557;DHT22;54387;53.526;49.300;2022-08-30T14:24:21;32.40;25.00
67557;DHT22;54387;53.526;49.300;2022-08-30T14:26:49;32.30;25.30
67557;DHT22;54387;53.526;49.300;2022-08-30T14:29:19;32.20;25.60
67557;DHT22;54387;53.526;49.300;2022-08-30T14:31:47;32.00;25.90
67557;DHT22;54387;53.526;49.300;2022-08-30T14:34:14;31.80;26.00
67557;DHT22;54387;53.526;49.300;2022-08-30T14:36:42;31.60;26.40
67557;DHT22;54387;53.526;49.300;2022-08-30T14:39:13;31.40;26.80
67557;DHT22;54387;53.526;49.300;2022-08-30T14:41:42;31.20;27.40
67557;DHT22;54387;53.526;49.300;2022-08-30T14:44:09;31.10;27.70
67557;DHT22;54387;53.526;49.300;2022-08-30T14:46:36;30.90;28.00
67557;DHT22;54387;53.526;49.300;2022-08-30T14:49:02;30.80;28.30
67557;DHT22;54387;53.526;49.300;2022-08-30T14:51:28;30.70;28.50
67557;DHT22;54387;53.526;49.300;2022-08-30T14:53:54;30.50;28.70
67557;DHT22;54387;53.526;49.300;2022-08-30T14:56:22;30.40;28.80
67557;DHT22;54387;53.526;49.300;2022-08-30T14:58:50;30.30;29.20
67557;DHT22;54387;53.526;49.300;2022-08-30T15:01:17;30.20;29.30
67557;DHT22;54387;53.526;49.300;2022-08-30T15:03:43;30.10;29.60
67557;DHT22;54387;53.526;49.300;2022-08-30T15:06:10;30.00;29.70
67557;DHT22;54387;53.526;49.300;2022-08-30T15:08:37;29.90;30.00
67557;DHT22;54387;53.526;49.300;2022-08-30T15:11:22;29.80;30.20
67557;DHT22;54387;53.526;49.300;2022-08-30T15:13:51;29.60;30.50
67557;DHT22;54387;53.526;49.300;2022-08-30T15:16:26;29.50;30.90
67557;DHT22;54387;53.526;49.300;2022-08-30T15:18:53;29.30;31.30
67557;DHT22;54387;53.526;49.300;2022-08-30T15:21:29;29.20;31.70
67557;DHT22;54387;53.526;49.300;2022-08-30T15:23:56;29.00;31.70
67557;DHT22;54387;53.526;49.300;2022-08-30T15:26:23;28.90;32.50
67557;DHT22;54387;53.526;49.300;2022-08-30T15:28:50;28.80;32.60
67557;DHT22;54387;53.526;49.300;2022-08-30T15:31:22;28.70;32.90
67557;DHT22;54387;53.526;49.300;2022-08-30T15:33:49;28.60;32.90
67557;DHT22;54387;53.526;49.300;2022-08-30T15:36:16;28.40;32.70
67557;DHT22;54387;53.526;49.300;2022-08-30T15:38:42;28.30;32.90
67557;DHT22;54387;53.526;49.300;2022-08-30T15:41:10;28.20;32.80
67557;DHT22;54387;53.526;49.300;2022-08-30T15:43:38;28.10;32.90
67557;DHT22;54387;53.526;49.300;2022-08-30T15:46:23;28.00;33.00
67557;DHT22;54387;53.526;49.300;2022-08-30T15:48:52;27.90;33.30
67557;DHT22;54387;53.526;49.300;2022-08-30T15:51:21;27.90;33.50
67557;DHT22;54387;53.526;49.300;2022-08-30T15:53:48;27.80;33.70
67557;DHT22;54387;53.526;49.300;2022-08-30T15:56:14;27.70;33.90
67557;DHT22;54387;53.526;49.300;2022-08-30T15:58:41;27.60;34.10
67557;DHT22;54387;53.526;49.300;2022-08-30T16:01:09;27.50;34.30
67557;DHT22;54387;53.526;49.300;2022-08-30T16:03:36;27.40;34.60
67557;DHT22;54387;53.526;49.300;2022-08-30T16:06:13;27.30;34.70
67557;DHT22;54387;53.526;49.300;2022-08-30T16:08:40;27.20;34.70
67557;DHT22;54387;53.526;49.300;2022-08-30T16:11:08;27.20;35.00
67557;DHT22;54387;53.526;49.300;2022-08-30T16:13:35;27.10;35.00
67557;DHT22;54387;53.526;49.300;2022-08-30T16:16:03;27.10;35.00
67557;DHT22;54387;53.526;49.300;2022-08-30T16:18:30;27.00;34.80
67557;DHT22;54387;53.526;49.300;2022-08-30T16:21:12;27.00;34.80
67557;DHT22;54387;53.526;49.300;2022-08-30T16:23:41;26.90;34.70
67557;DHT22;54387;53.526;49.300;2022-08-30T16:26:07;26.90;34.70
67557;DHT22;54387;53.526;49.300;2022-08-30T16:28:34;26.80;34.80
67557;DHT22;54387;53.526;49.300;2022-08-30T16:31:01;26.80;35.10
67557;DHT22;54387;53.526;49.300;2022-08-30T16:33:28;26.80;35.30
67557;DHT22;54387;53.526;49.300;2022-08-30T16:35:55;26.80;35.30
67557;DHT22;54387;53.526;49.300;2022-08-30T16:38:23;26.70;35.20
67557;DHT22;54387;53.526;49.300;2022-08-30T16:40:50;26.70;35.30
67557;DHT22;54387;53.526;49.300;2022-08-30T16:43:17;26.60;35.30
67557;DHT22;54387;53.526;49.300;2022-08-30T16:45:43;26.60;35.40